Forum Judi Online Indonesia

User info

Welcome, Guest! Please login or register.


You are here » Forum Judi Online Indonesia » Promo Sabung Ayam


Promo Sabung Ayam

Topics 1 to 30 of 712

Topic Replies Views Last post
55 234 Today 15:09:40 by wajibqq
0 6 Today 02:21:46 by vaneshaagnes
0 1 Today 02:21:33 by serba1234
22 97 Yesterday 21:59:54 by megawin138
35 119 Yesterday 20:00:58 by enterslots
0 6 2022-01-18 01:52:21 by serba1234
0 6 2022-01-16 01:47:26 by vaneshaagnes
0 2 2022-01-15 22:44:12 by serba1234
0 4 2022-01-15 02:22:30 by vaneshaagnes
0 3 2022-01-13 03:38:45 by serba1234
0 1 2022-01-13 03:19:52 by vaneshaagnes
0 5 2022-01-12 04:40:04 by vaneshaagnes
0 3 2022-01-12 01:46:43 by serba1234
0 4 2022-01-11 04:23:03 by vaneshaagnes
0 7 2022-01-10 02:00:21 by serba1234
66 265 2022-01-09 11:47:12 by bilqisrahmadhanii
0 3 2022-01-08 14:24:46 by Pktam13
2 18 2022-01-07 03:14:55 by Kodejitu
0 7 2022-01-06 06:35:05 by serba1234
5 26 2022-01-05 13:13:20 by tempo88
0 6 2022-01-04 04:11:46 by serba1234
1 9 2022-01-02 18:14:08 by Pktam13
0 4 2022-01-02 12:19:57 by NABILQIS ULFAIRAH
4 21 2022-01-01 19:00:09 by Pktam13
4 29 2021-12-31 02:59:05 by indy Iriani
0 5 2021-12-31 01:07:31 by serba1234
4 18 2021-12-30 05:32:43 by claramonica
58 242 2021-12-29 14:45:26 by dewimarya
29 SITUS PALING HOT DI INDONESIA by mada  [ 1 2 ]
53 181 2021-12-29 13:54:33 by mada
54 158 2021-12-29 11:43:13 by nadaqq

You are here » Forum Judi Online Indonesia » Promo Sabung Ayam